createdAt,value
2023-02-06T00:01:23.088Z,99991.00
2023-02-06T00:03:50.659Z,99999.00
2023-02-06T00:06:18.679Z,99998.00
2023-02-06T00:08:46.257Z,100008.00
2023-02-06T00:11:16.704Z,100004.00
2023-02-06T00:13:46.288Z,100005.00
2023-02-06T00:16:18.202Z,100005.00
2023-02-06T00:18:45.827Z,100012.00
2023-02-06T00:21:13.977Z,100008.00
2023-02-06T00:23:41.843Z,100003.00
2023-02-06T00:26:09.454Z,100008.00
2023-02-06T00:28:37.064Z,100003.00
2023-02-06T00:31:08.079Z,100013.00
2023-02-06T00:33:36.242Z,100017.00
2023-02-06T00:36:04.800Z,100014.00
2023-02-06T00:38:32.566Z,100015.00
2023-02-06T00:41:00.246Z,100010.00
2023-02-06T00:43:27.833Z,100008.00
2023-02-06T00:45:56.843Z,100006.00
2023-02-06T00:48:26.546Z,100013.00
2023-02-06T00:50:55.075Z,100014.00
2023-02-06T00:53:22.805Z,100013.00
2023-02-06T00:55:50.402Z,100007.00
2023-02-06T00:58:18.030Z,100001.00
2023-02-06T01:00:45.806Z,100001.00
2023-02-06T01:03:13.494Z,100004.00
2023-02-06T01:05:42.444Z,99987.00
2023-02-06T01:08:10.062Z,99982.00
2023-02-06T01:10:37.721Z,99986.00
2023-02-06T01:13:05.297Z,99983.00
2023-02-06T01:15:33.058Z,99989.00
2023-02-06T01:18:02.103Z,99976.00
2023-02-06T01:20:29.759Z,99974.00
2023-02-06T01:22:58.664Z,99973.00
2023-02-06T01:25:26.244Z,99969.00
2023-02-06T01:27:53.981Z,99963.00
2023-02-06T01:30:21.629Z,99973.00
2023-02-06T01:32:49.253Z,99982.00
2023-02-06T01:35:16.909Z,99978.00
2023-02-06T01:37:44.639Z,99973.00
2023-02-06T01:40:17.339Z,99979.00
2023-02-06T01:42:45.288Z,99992.00
2023-02-06T01:45:35.783Z,100005.00
2023-02-06T01:48:08.780Z,100011.00
2023-02-06T01:50:39.485Z,100005.00
2023-02-06T01:53:07.958Z,100011.00
2023-02-06T01:55:39.171Z,100005.00
2023-02-06T01:58:08.472Z,100003.00
2023-02-06T02:00:36.368Z,100002.00
2023-02-06T02:03:05.719Z,100004.00
2023-02-06T02:05:34.815Z,100010.00
2023-02-06T02:08:07.366Z,100012.00
2023-02-06T02:10:35.371Z,99999.00
2023-02-06T02:13:04.407Z,100008.00
2023-02-06T02:15:41.576Z,100002.00
2023-02-06T02:18:23.152Z,99993.00
2023-02-06T02:21:10.152Z,100006.00
2023-02-06T02:23:43.879Z,100017.00
2023-02-06T02:26:46.807Z,100011.00
2023-02-06T02:29:56.184Z,100012.00
2023-02-06T02:32:46.220Z,100010.00
2023-02-06T02:35:24.010Z,99984.00
2023-02-06T02:38:02.787Z,99984.00
2023-02-06T02:40:39.270Z,99995.00
2023-02-06T02:43:15.804Z,99982.00
2023-02-06T02:45:49.337Z,99987.00
2023-02-06T02:48:24.600Z,100002.00
2023-02-06T02:50:56.082Z,99994.00
2023-02-06T02:53:23.679Z,99986.00
2023-02-06T02:55:51.222Z,99981.00
2023-02-06T02:58:22.569Z,99984.00
2023-02-06T03:00:55.351Z,99987.00
2023-02-06T03:03:28.768Z,99975.00
2023-02-06T03:06:16.271Z,99985.00
2023-02-06T03:08:50.589Z,99988.00
2023-02-06T03:11:20.823Z,99996.00
2023-02-06T03:13:54.690Z,99987.00
2023-02-06T03:16:25.876Z,99990.00
2023-02-06T03:18:58.322Z,99996.00
2023-02-06T03:21:30.324Z,99990.00
2023-02-06T03:24:01.862Z,99997.00
2023-02-06T03:26:31.578Z,99986.00
2023-02-06T03:29:01.993Z,99979.00
2023-02-06T03:31:33.191Z,99979.00
2023-02-06T03:34:07.332Z,99976.00
2023-02-06T03:36:36.731Z,99970.00
2023-02-06T03:39:05.078Z,99974.00
2023-02-06T03:41:36.384Z,99960.00
2023-02-06T03:44:07.037Z,99968.00
2023-02-06T03:46:37.525Z,99979.00
2023-02-06T03:49:08.805Z,99978.00
2023-02-06T03:51:41.383Z,99984.00
2023-02-06T03:54:12.024Z,99987.00
2023-02-06T03:56:44.608Z,99993.00
2023-02-06T03:59:12.368Z,100004.00
2023-02-06T04:01:42.994Z,100015.00
2023-02-06T04:04:10.585Z,100012.00
2023-02-06T04:06:39.480Z,100016.00
2023-02-06T04:09:07.037Z,100010.00
2023-02-06T04:11:34.611Z,100016.00
2023-02-06T04:14:02.155Z,100010.00
2023-02-06T04:16:30.041Z,100010.00
2023-02-06T04:18:57.624Z,100003.00
2023-02-06T04:21:25.219Z,100002.00
2023-02-06T04:23:54.818Z,100002.00
2023-02-06T04:26:22.384Z,99995.00
2023-02-06T04:28:49.912Z,99999.00
2023-02-06T04:31:17.556Z,100018.00
2023-02-06T04:33:45.168Z,100015.00
2023-02-06T04:36:12.815Z,100004.00
2023-02-06T04:38:40.373Z,100008.00
2023-02-06T04:41:09.297Z,100004.00
2023-02-06T04:43:36.842Z,100013.00
2023-02-06T04:46:04.739Z,100006.00
2023-02-06T04:48:32.328Z,99999.00
2023-02-06T04:50:59.958Z,99999.00
2023-02-06T04:53:27.572Z,99992.00
2023-02-06T04:55:56.346Z,99986.00
2023-02-06T04:58:25.226Z,99988.00
2023-02-06T05:00:52.806Z,99986.00
2023-02-06T05:03:20.333Z,99989.00
2023-02-06T05:05:47.878Z,99993.00
2023-02-06T05:08:15.435Z,99991.00
2023-02-06T05:10:43.059Z,99985.00
2023-02-06T05:13:11.099Z,99996.00
2023-02-06T05:15:40.647Z,99995.00
2023-02-06T05:18:08.220Z,99981.00
2023-02-06T05:20:35.797Z,99976.00
2023-02-06T05:23:03.345Z,99973.00
2023-02-06T05:25:31.163Z,99967.00
2023-02-06T05:27:58.814Z,99968.00
2023-02-06T05:30:26.446Z,99975.00
2023-02-06T05:32:55.340Z,99976.00
2023-02-06T05:35:23.074Z,99975.00
2023-02-06T05:37:50.637Z,99979.00
2023-02-06T05:40:18.611Z,99972.00
2023-02-06T05:42:46.236Z,99986.00
2023-02-06T05:45:13.853Z,99991.00
2023-02-06T05:47:41.430Z,99994.00
2023-02-06T05:50:10.942Z,100007.00
2023-02-06T05:52:38.473Z,100006.00
2023-02-06T05:55:06.609Z,100022.00
2023-02-06T05:57:34.166Z,100012.00
2023-02-06T06:00:02.351Z,100009.00
2023-02-06T06:02:29.917Z,100016.00
2023-02-06T06:04:57.786Z,100009.00
2023-02-06T06:07:27.269Z,100015.00
2023-02-06T06:09:55.689Z,100019.00
2023-02-06T06:12:23.314Z,100025.00
2023-02-06T06:14:50.872Z,100028.00
2023-02-06T06:17:18.419Z,100018.00
2023-02-06T06:19:46.074Z,100013.00
2023-02-06T06:22:13.675Z,100019.00
2023-02-06T06:24:42.590Z,100018.00
2023-02-06T06:27:10.822Z,100013.00
2023-02-06T06:29:38.646Z,100015.00
2023-02-06T06:32:06.681Z,100010.00
2023-02-06T06:34:34.280Z,100007.00
2023-02-06T06:37:01.939Z,100014.00
2023-02-06T06:39:29.506Z,100010.00
2023-02-06T06:41:58.401Z,100001.00
2023-02-06T06:44:25.973Z,100002.00
2023-02-06T06:46:53.656Z,99985.00
2023-02-06T06:49:21.190Z,99993.00
2023-02-06T06:51:48.810Z,99998.00
2023-02-06T06:54:16.902Z,100005.00
2023-02-06T06:56:44.513Z,100003.00
2023-02-06T06:59:13.495Z,100002.00
2023-02-06T07:01:41.327Z,99999.00
2023-02-06T07:04:08.922Z,99992.00
2023-02-06T07:06:36.720Z,99987.00
2023-02-06T07:09:04.483Z,99986.00
2023-02-06T07:11:32.068Z,99987.00
2023-02-06T07:13:59.877Z,99995.00
2023-02-06T07:16:29.121Z,99994.00
2023-02-06T07:18:56.945Z,99986.00
2023-02-06T07:21:24.570Z,99992.00
2023-02-06T07:23:54.625Z,99995.00
2023-02-06T07:26:22.938Z,99998.00
2023-02-06T07:28:52.626Z,100002.00
2023-02-06T07:31:20.826Z,99996.00
2023-02-06T07:33:49.754Z,99987.00
2023-02-06T07:36:18.549Z,100000.00
2023-02-06T07:38:46.627Z,99996.00
2023-02-06T07:41:14.257Z,99986.00
2023-02-06T07:43:41.828Z,99993.00
2023-02-06T07:46:09.515Z,99988.00
2023-02-06T07:48:37.128Z,99989.00
2023-02-06T07:51:09.417Z,99988.00
2023-02-06T07:53:39.203Z,99993.00
2023-02-06T07:56:16.373Z,99998.00
2023-02-06T07:58:44.384Z,99997.00
2023-02-06T08:01:12.631Z,100003.00
2023-02-06T08:03:41.065Z,100002.00
2023-02-06T08:06:11.429Z,100005.00
2023-02-06T08:08:39.385Z,100011.00
2023-02-06T08:11:07.832Z,100001.00
2023-02-06T08:13:35.953Z,100014.00
2023-02-06T08:16:09.303Z,100016.00
2023-02-06T08:18:38.016Z,100028.00
2023-02-06T08:21:07.818Z,100020.00
2023-02-06T08:23:36.893Z,100027.00
2023-02-06T08:26:07.137Z,100024.00
2023-02-06T08:28:36.677Z,100015.00
2023-02-06T08:31:11.497Z,100015.00
2023-02-06T08:33:40.906Z,100009.00
2023-02-06T08:36:09.970Z,100003.00
2023-02-06T08:38:39.728Z,100005.00
2023-02-06T08:41:17.552Z,100003.00
2023-02-06T08:43:45.926Z,100002.00
2023-02-06T08:46:14.458Z,99998.00
2023-02-06T08:48:42.514Z,99992.00
2023-02-06T08:51:11.755Z,99978.00
2023-02-06T08:53:40.673Z,99985.00
2023-02-06T08:56:11.946Z,99982.00
2023-02-06T08:58:40.137Z,99980.00
2023-02-06T09:01:08.736Z,99977.00
2023-02-06T09:03:36.827Z,99975.00
2023-02-06T09:06:10.264Z,99980.00
2023-02-06T09:08:43.009Z,99986.00
2023-02-06T09:11:17.524Z,99979.00
2023-02-06T09:13:49.252Z,99981.00
2023-02-06T09:16:18.361Z,99984.00
2023-02-06T09:18:47.136Z,99975.00
2023-02-06T09:21:16.768Z,99971.00
2023-02-06T09:23:47.917Z,99965.00
2023-02-06T09:26:19.026Z,99958.00
2023-02-06T09:28:46.639Z,99946.00
2023-02-06T09:31:14.371Z,99949.00
2023-02-06T09:33:41.989Z,99940.00
2023-02-06T09:36:12.756Z,99944.00
2023-02-06T09:38:44.847Z,99938.00
2023-02-06T09:41:21.474Z,99942.00
2023-02-06T09:43:52.623Z,99945.00
2023-02-06T09:46:27.342Z,99945.00
2023-02-06T09:48:57.653Z,99942.00
2023-02-06T09:51:35.014Z,99948.00
2023-02-06T09:54:09.915Z,99944.00
2023-02-06T09:56:44.831Z,99919.00
2023-02-06T09:59:18.775Z,99910.00
2023-02-06T10:01:53.602Z,99911.00
2023-02-06T10:04:41.197Z,99903.00
2023-02-06T10:07:23.869Z,99906.00
2023-02-06T10:09:57.240Z,99912.00
2023-02-06T10:12:31.615Z,99902.00
2023-02-06T10:15:04.000Z,99899.00
2023-02-06T10:17:35.126Z,99894.00
2023-02-06T10:20:07.551Z,99881.00
2023-02-06T10:22:54.473Z,99882.00
2023-02-06T10:25:26.046Z,99877.00
2023-02-06T10:28:24.265Z,99878.00
2023-02-06T10:31:17.184Z,99881.00
2023-02-06T10:33:52.193Z,99867.00
2023-02-06T10:36:38.506Z,99876.00
2023-02-06T10:39:21.590Z,99864.00
2023-02-06T10:41:57.755Z,99860.00
2023-02-06T10:44:31.400Z,99846.00
2023-02-06T10:47:00.789Z,99845.00
2023-02-06T10:49:35.034Z,99847.00
2023-02-06T10:52:05.003Z,99840.00
2023-02-06T10:54:37.398Z,99844.00
2023-02-06T10:57:12.781Z,99844.00
2023-02-06T10:59:45.886Z,99839.00
2023-02-06T11:02:21.637Z,99832.00
2023-02-06T11:04:54.876Z,99822.00
2023-02-06T11:07:27.979Z,99810.00
2023-02-06T11:09:56.030Z,99810.00
2023-02-06T11:12:30.568Z,99807.00
2023-02-06T11:15:04.844Z,99809.00
2023-02-06T11:17:32.754Z,99824.00
2023-02-06T11:20:06.263Z,99822.00
2023-02-06T11:22:44.232Z,99830.00
2023-02-06T11:25:22.888Z,99826.00
2023-02-06T11:27:50.646Z,99818.00
2023-02-06T11:30:42.794Z,99828.00
2023-02-06T11:33:20.625Z,99820.00
2023-02-06T11:35:50.369Z,99819.00
2023-02-06T11:38:21.443Z,99808.00
2023-02-06T11:40:56.571Z,99794.00
2023-02-06T11:43:26.239Z,99801.00
2023-02-06T11:46:16.130Z,99796.00
2023-02-06T11:48:46.000Z,99794.00
2023-02-06T11:51:15.000Z,99800.00
2023-02-06T11:53:57.844Z,99796.00
2023-02-06T11:56:25.973Z,99789.00
2023-02-06T11:59:06.968Z,99793.00
2023-02-06T12:01:45.288Z,99791.00
2023-02-06T12:04:23.942Z,99799.00
2023-02-06T12:06:55.713Z,99811.00
2023-02-06T12:09:23.355Z,99807.00
2023-02-06T12:11:54.564Z,99794.00
2023-02-06T12:14:26.359Z,99786.00
2023-02-06T12:16:55.660Z,99780.00
2023-02-06T12:19:31.593Z,99778.00
2023-02-06T12:22:04.002Z,99773.00
2023-02-06T12:24:45.029Z,99765.00
2023-02-06T12:27:32.579Z,99760.00
2023-02-06T12:30:08.640Z,99758.00
2023-02-06T12:32:42.238Z,99737.00
2023-02-06T12:35:18.531Z,99744.00
2023-02-06T12:37:51.947Z,99747.00
2023-02-06T12:40:34.943Z,99750.00
2023-02-06T12:43:07.979Z,99753.00
2023-02-06T12:45:45.060Z,99750.00
2023-02-06T12:48:21.478Z,99753.00
2023-02-06T12:51:05.733Z,99756.00
2023-02-06T12:53:38.091Z,99774.00
2023-02-06T12:56:11.815Z,99754.00
2023-02-06T12:58:54.985Z,99746.00
2023-02-06T13:01:40.609Z,99731.00
2023-02-06T13:04:16.313Z,99736.00
2023-02-06T13:07:04.244Z,99736.00
2023-02-06T13:09:43.452Z,99733.00
2023-02-06T13:12:17.940Z,99737.00
2023-02-06T13:14:49.553Z,99738.00
2023-02-06T13:17:21.455Z,99747.00
2023-02-06T13:20:05.775Z,99739.00
2023-02-06T13:22:43.288Z,99757.00
2023-02-06T13:25:51.099Z,99744.00
2023-02-06T13:28:42.382Z,99754.00
2023-02-06T13:31:33.020Z,99751.00
2023-02-06T13:34:16.220Z,99751.00
2023-02-06T13:36:52.625Z,99761.00
2023-02-06T13:39:27.577Z,99757.00
2023-02-06T13:42:03.196Z,99754.00
2023-02-06T13:44:35.438Z,99762.00
2023-02-06T13:47:30.560Z,99751.00
2023-02-06T13:50:25.309Z,99742.00
2023-02-06T13:53:16.764Z,99738.00
2023-02-06T13:55:56.144Z,99737.00
2023-02-06T13:58:40.844Z,99733.00
2023-02-06T14:01:15.518Z,99730.00
2023-02-06T14:03:50.384Z,99735.00
2023-02-06T14:06:49.903Z,99735.00
2023-02-06T14:09:36.615Z,99731.00
2023-02-06T14:12:31.691Z,99728.00
2023-02-06T14:15:08.112Z,99727.00
2023-02-06T14:17:46.583Z,99725.00
2023-02-06T14:20:25.552Z,99731.00
2023-02-06T14:23:03.853Z,99734.00
2023-02-06T14:25:46.991Z,99731.00
2023-02-06T14:28:27.146Z,99729.00
2023-02-06T14:31:10.073Z,99729.00
2023-02-06T14:33:57.298Z,99732.00
2023-02-06T14:36:41.056Z,99733.00
2023-02-06T14:39:43.933Z,99743.00
2023-02-06T14:42:18.933Z,99734.00
2023-02-06T14:44:51.376Z,99743.00
2023-02-06T14:47:22.876Z,99741.00
2023-02-06T14:49:51.416Z,99737.00
2023-02-06T14:52:29.308Z,99736.00
2023-02-06T14:54:57.134Z,99728.00
2023-02-06T14:57:28.334Z,99726.00
2023-02-06T15:00:19.226Z,99726.00
2023-02-06T15:02:47.501Z,99727.00
2023-02-06T15:05:25.546Z,99735.00
2023-02-06T15:08:00.117Z,99719.00
2023-02-06T15:10:30.441Z,99721.00
2023-02-06T15:12:59.946Z,99716.00
2023-02-06T15:15:29.505Z,99710.00
2023-02-06T15:18:24.580Z,99719.00
2023-02-06T15:20:57.043Z,99719.00
2023-02-06T15:23:39.143Z,99722.00
2023-02-06T15:26:19.977Z,99731.00
2023-02-06T15:28:49.163Z,99726.00
2023-02-06T15:31:20.177Z,99726.00
2023-02-06T15:33:51.370Z,99723.00
2023-02-06T15:36:54.482Z,99723.00
2023-02-06T15:39:25.024Z,99727.00
2023-02-06T15:41:53.798Z,99736.00
2023-02-06T15:44:28.571Z,99729.00
2023-02-06T15:46:58.340Z,99733.00
2023-02-06T15:49:37.958Z,99727.00
2023-02-06T15:52:08.313Z,99729.00
2023-02-06T15:54:36.619Z,99736.00
2023-02-06T15:57:08.148Z,99733.00
2023-02-06T15:59:41.323Z,99732.00
2023-02-06T16:02:20.868Z,99740.00
2023-02-06T16:04:53.527Z,99733.00
2023-02-06T16:07:24.678Z,99731.00
2023-02-06T16:09:55.485Z,99734.00
2023-02-06T16:12:24.852Z,99732.00
2023-02-06T16:14:58.236Z,99740.00
2023-02-06T16:17:35.555Z,99731.00
2023-02-06T16:20:07.275Z,99745.00
2023-02-06T16:22:38.223Z,99742.00
2023-02-06T16:25:22.683Z,99751.00
2023-02-06T16:27:52.951Z,99750.00
2023-02-06T16:30:25.763Z,99742.00
2023-02-06T16:32:55.454Z,99753.00
2023-02-06T16:35:23.988Z,99748.00
2023-02-06T16:37:53.549Z,99751.00
2023-02-06T16:40:22.185Z,99752.00
2023-02-06T16:42:49.908Z,99754.00
2023-02-06T16:45:20.327Z,99754.00
2023-02-06T16:47:49.532Z,99758.00
2023-02-06T16:50:18.435Z,99764.00
2023-02-06T16:52:48.919Z,99767.00
2023-02-06T16:55:22.888Z,99765.00
2023-02-06T16:57:53.701Z,99772.00
2023-02-06T17:00:24.027Z,99770.00
2023-02-06T17:02:54.067Z,99771.00
2023-02-06T17:05:24.066Z,99778.00
2023-02-06T17:07:52.705Z,99780.00
2023-02-06T17:10:23.479Z,99774.00
2023-02-06T17:12:52.202Z,99767.00
2023-02-06T17:15:20.745Z,99774.00
2023-02-06T17:17:48.469Z,99773.00
2023-02-06T17:20:25.955Z,99778.00
2023-02-06T17:22:53.589Z,99776.00
2023-02-06T17:25:21.201Z,99774.00
2023-02-06T17:27:49.110Z,99780.00
2023-02-06T17:30:19.585Z,99776.00
2023-02-06T17:32:47.266Z,99793.00
2023-02-06T17:35:14.951Z,99786.00
2023-02-06T17:37:43.940Z,99781.00
2023-02-06T17:40:18.425Z,99776.00
2023-02-06T17:42:46.102Z,99771.00
2023-02-06T17:45:13.742Z,99785.00
2023-02-06T17:47:41.659Z,99783.00
2023-02-06T17:50:10.428Z,99788.00
2023-02-06T17:52:38.111Z,99791.00
2023-02-06T17:55:08.188Z,99792.00
2023-02-06T17:57:36.229Z,99795.00
2023-02-06T18:00:06.168Z,99796.00
2023-02-06T18:02:34.382Z,99808.00
2023-02-06T18:05:04.022Z,99810.00
2023-02-06T18:07:31.808Z,99805.00
2023-02-06T18:09:59.751Z,99810.00
2023-02-06T18:12:29.218Z,99806.00
2023-02-06T18:14:57.055Z,99806.00
2023-02-06T18:17:24.816Z,99818.00
2023-02-06T18:19:52.553Z,99823.00
2023-02-06T18:22:22.453Z,99807.00
2023-02-06T18:24:51.074Z,99810.00
2023-02-06T18:27:20.437Z,99813.00
2023-02-06T18:29:50.945Z,99819.00
2023-02-06T18:32:19.735Z,99817.00
2023-02-06T18:34:48.511Z,99806.00
2023-02-06T18:37:16.352Z,99808.00
2023-02-06T18:39:44.108Z,99807.00
2023-02-06T18:42:29.831Z,99795.00
2023-02-06T18:44:58.837Z,99809.00
2023-02-06T18:47:26.500Z,99819.00
2023-02-06T18:49:54.174Z,99827.00
2023-02-06T18:52:22.175Z,99829.00
2023-02-06T18:54:49.834Z,99823.00
2023-02-06T18:57:17.607Z,99822.00
2023-02-06T18:59:45.274Z,99825.00
2023-02-06T19:02:14.570Z,99825.00
2023-02-06T19:04:42.715Z,99830.00
2023-02-06T19:07:11.687Z,99845.00
2023-02-06T19:09:39.459Z,99852.00
2023-02-06T19:12:07.855Z,99855.00
2023-02-06T19:14:35.765Z,99862.00
2023-02-06T19:17:03.488Z,99868.00
2023-02-06T19:19:32.562Z,99874.00
2023-02-06T19:22:00.302Z,99862.00
2023-02-06T19:24:30.595Z,99865.00
2023-02-06T19:26:58.526Z,99870.00
2023-02-06T19:29:35.092Z,99871.00
2023-02-06T19:32:04.829Z,99871.00
2023-02-06T19:34:36.126Z,99873.00
2023-02-06T19:37:04.304Z,99863.00
2023-02-06T19:39:34.082Z,99856.00
2023-02-06T19:42:02.218Z,99864.00
2023-02-06T19:44:32.710Z,99861.00
2023-02-06T19:47:00.725Z,99872.00
2023-02-06T19:49:28.681Z,99869.00
2023-02-06T19:51:58.039Z,99863.00
2023-02-06T19:54:27.107Z,99864.00
2023-02-06T19:56:55.379Z,99858.00
2023-02-06T19:59:25.211Z,99865.00
2023-02-06T20:01:55.199Z,99867.00
2023-02-06T20:04:25.218Z,99879.00
2023-02-06T20:06:55.802Z,99888.00
2023-02-06T20:09:25.836Z,99891.00
2023-02-06T20:11:53.526Z,99882.00
2023-02-06T20:14:23.709Z,99883.00
2023-02-06T20:16:51.922Z,99871.00
2023-02-06T20:19:22.928Z,99864.00
2023-02-06T20:21:53.456Z,99861.00
2023-02-06T20:24:24.714Z,99872.00
2023-02-06T20:26:56.477Z,99876.00
2023-02-06T20:29:26.671Z,99878.00
2023-02-06T20:31:55.528Z,99879.00
2023-02-06T20:34:23.967Z,99886.00
2023-02-06T20:36:55.021Z,99880.00
2023-02-06T20:39:24.880Z,99878.00
2023-02-06T20:41:52.874Z,99883.00
2023-02-06T20:44:26.448Z,99882.00
2023-02-06T20:46:54.523Z,99888.00
2023-02-06T20:49:25.329Z,99880.00
2023-02-06T20:51:53.938Z,99868.00
2023-02-06T20:54:22.559Z,99881.00
2023-02-06T20:56:51.896Z,99883.00
2023-02-06T20:59:21.482Z,99893.00
2023-02-06T21:01:49.717Z,99910.00
2023-02-06T21:04:18.825Z,99905.00
2023-02-06T21:06:48.576Z,99900.00
2023-02-06T21:09:17.079Z,99889.00
2023-02-06T21:11:46.929Z,99889.00
2023-02-06T21:14:16.910Z,99890.00
2023-02-06T21:16:45.214Z,99890.00
2023-02-06T21:19:15.341Z,99900.00
2023-02-06T21:21:45.962Z,99895.00
2023-02-06T21:24:14.369Z,99891.00
2023-02-06T21:26:42.082Z,99897.00
2023-02-06T21:29:14.091Z,99902.00
2023-02-06T21:31:46.254Z,99905.00
2023-02-06T21:34:17.407Z,99914.00
2023-02-06T21:36:45.715Z,99929.00
2023-02-06T21:39:16.699Z,99931.00
2023-02-06T21:41:46.341Z,99931.00
2023-02-06T21:44:15.406Z,99928.00
2023-02-06T21:46:44.671Z,99930.00
2023-02-06T21:49:13.522Z,99921.00
2023-02-06T21:51:41.864Z,99926.00
2023-02-06T21:54:09.953Z,99922.00
2023-02-06T21:56:38.999Z,99934.00
2023-02-06T21:59:07.135Z,99933.00
2023-02-06T22:01:35.051Z,99943.00
2023-02-06T22:04:06.762Z,99941.00
2023-02-06T22:06:38.789Z,99938.00
2023-02-06T22:09:09.568Z,99936.00
2023-02-06T22:11:40.035Z,99946.00
2023-02-06T22:14:11.189Z,99947.00
2023-02-06T22:16:40.643Z,99952.00
2023-02-06T22:19:11.637Z,99953.00
2023-02-06T22:21:43.059Z,99958.00
2023-02-06T22:24:13.299Z,99962.00
2023-02-06T22:26:41.781Z,99956.00
2023-02-06T22:29:13.507Z,99962.00
2023-02-06T22:31:44.007Z,99967.00
2023-02-06T22:34:16.555Z,99977.00
2023-02-06T22:36:45.446Z,99972.00
2023-02-06T22:39:14.595Z,99979.00
2023-02-06T22:41:45.141Z,99979.00
2023-02-06T22:44:16.425Z,99975.00
2023-02-06T22:46:46.202Z,99985.00
2023-02-06T22:49:18.293Z,99983.00
2023-02-06T22:51:46.491Z,99989.00
2023-02-06T22:54:15.616Z,99993.00
2023-02-06T22:56:44.791Z,99984.00
2023-02-06T22:59:14.726Z,99993.00
2023-02-06T23:01:44.392Z,100001.00
2023-02-06T23:04:14.480Z,99996.00
2023-02-06T23:06:45.416Z,99994.00
2023-02-06T23:09:19.478Z,99999.00
2023-02-06T23:11:48.757Z,100015.00
2023-02-06T23:14:22.083Z,100016.00
2023-02-06T23:16:50.894Z,100018.00
2023-02-06T23:19:19.453Z,100028.00
2023-02-06T23:22:13.951Z,100034.00
2023-02-06T23:24:41.754Z,100047.00
2023-02-06T23:27:09.449Z,100032.00
2023-02-06T23:29:37.147Z,100017.00
2023-02-06T23:32:05.462Z,100030.00
2023-02-06T23:34:33.780Z,100021.00
2023-02-06T23:37:02.963Z,100032.00
2023-02-06T23:39:30.633Z,100015.00
2023-02-06T23:41:58.420Z,100036.00
2023-02-06T23:44:26.020Z,100026.00
2023-02-06T23:46:53.680Z,100026.00
2023-02-06T23:49:21.329Z,100006.00
2023-02-06T23:51:48.956Z,100014.00
2023-02-06T23:54:18.100Z,100041.00
2023-02-06T23:56:45.822Z,100026.00
2023-02-06T23:59:13.472Z,100021.00
